Terminal Aerodrome Forecast
Issued by NWS Cleveland, OH

Home | Current Version | Previous Version | Text Only | Print | Product List | Glossary On
Versions: 1 2 3 4 5 6 7 8 9 10 11 12 13 14 15 16
000
FTUS41 KCLE 291745
TAFCLE
TAF
KCLE 291745Z 2918/3024 18014G22KT P6SM BKN050
      TEMPO 2919/2921 3SM -TSRA OVC050CB
     FM292100 18012G20KT P6SM BKN080
     FM300200 18010KT P6SM SCT150
     FM301400 20010KT P6SM SCT035
     FM301600 22014G22KT P6SM BKN050
     FM302200 24012G25KT 3SM TSRA OVC050CB=

USA.gov is the U.S. government's official web portal to all federal, state and local government web resources and services.